sensor_id;sensor_type;location;lat;lon;timestamp;pressure;altitude;pressure_sealevel;temperature;humidity
75701;BME280;64321;48.796;44.740;2024-02-26T00:01:32;104081.03;;;-7.63;93.37
75701;BME280;64321;48.796;44.740;2024-02-26T00:06:36;104084.84;;;-7.55;92.38
75701;BME280;64321;48.796;44.740;2024-02-26T00:11:39;104088.50;;;-7.68;91.76
75701;BME280;64321;48.796;44.740;2024-02-26T00:16:42;104080.59;;;-7.73;92.33
75701;BME280;64321;48.796;44.740;2024-02-26T00:21:45;104075.34;;;-7.92;92.63
75701;BME280;64321;48.796;44.740;2024-02-26T00:26:47;104071.47;;;-7.84;92.83
75701;BME280;64321;48.796;44.740;2024-02-26T00:31:55;104067.63;;;-8.10;93.50
75701;BME280;64321;48.796;44.740;2024-02-26T00:36:58;104063.19;;;-7.96;94.67
75701;BME280;64321;48.796;44.740;2024-02-26T00:42:00;104051.97;;;-7.98;94.67
75701;BME280;64321;48.796;44.740;2024-02-26T00:47:03;104062.38;;;-7.95;94.04
75701;BME280;64321;48.796;44.740;2024-02-26T00:52:05;104055.91;;;-8.05;92.57
75701;BME280;64321;48.796;44.740;2024-02-26T00:57:08;104061.09;;;-8.03;94.64
75701;BME280;64321;48.796;44.740;2024-02-26T01:02:11;104053.13;;;-8.09;93.49
75701;BME280;64321;48.796;44.740;2024-02-26T01:07:13;104061.78;;;-8.07;93.23
75701;BME280;64321;48.796;44.740;2024-02-26T01:12:16;104061.34;;;-7.98;92.74
75701;BME280;64321;48.796;44.740;2024-02-26T01:17:18;104052.97;;;-8.12;94.47
75701;BME280;64321;48.796;44.740;2024-02-26T01:22:21;104049.28;;;-8.17;93.12
75701;BME280;64321;48.796;44.740;2024-02-26T01:27:24;104044.47;;;-8.11;92.83
75701;BME280;64321;48.796;44.740;2024-02-26T01:32:28;104044.78;;;-8.21;93.45
75701;BME280;64321;48.796;44.740;2024-02-26T01:37:31;104047.06;;;-8.27;93.43
75701;BME280;64321;48.796;44.740;2024-02-26T01:42:33;104036.53;;;-8.33;93.77
75701;BME280;64321;48.796;44.740;2024-02-26T01:47:36;104030.06;;;-8.43;94.13
75701;BME280;64321;48.796;44.740;2024-02-26T01:52:39;104021.00;;;-8.36;92.50
75701;BME280;64321;48.796;44.740;2024-02-26T01:57:43;104014.69;;;-8.59;92.84
75701;BME280;64321;48.796;44.740;2024-02-26T02:02:48;104010.84;;;-8.51;91.06
75701;BME280;64321;48.796;44.740;2024-02-26T02:07:51;104010.28;;;-8.46;91.39
75701;BME280;64321;48.796;44.740;2024-02-26T02:12:55;104006.66;;;-8.33;90.27
75701;BME280;64321;48.796;44.740;2024-02-26T02:17:57;104007.94;;;-8.23;89.75
75701;BME280;64321;48.796;44.740;2024-02-26T02:23:00;103994.75;;;-8.49;89.57
75701;BME280;64321;48.796;44.740;2024-02-26T02:28:03;103996.31;;;-8.34;88.27
75701;BME280;64321;48.796;44.740;2024-02-26T02:33:06;103985.13;;;-8.36;87.30
75701;BME280;64321;48.796;44.740;2024-02-26T02:38:09;103983.34;;;-8.37;86.27
75701;BME280;64321;48.796;44.740;2024-02-26T02:43:11;103991.69;;;-8.42;85.00
75701;BME280;64321;48.796;44.740;2024-02-26T02:48:14;103981.06;;;-8.31;83.91
75701;BME280;64321;48.796;44.740;2024-02-26T02:53:17;103979.34;;;-8.32;83.08
75701;BME280;64321;48.796;44.740;2024-02-26T02:58:20;103979.13;;;-8.37;82.51
75701;BME280;64321;48.796;44.740;2024-02-26T03:03:23;103981.16;;;-8.30;80.97
75701;BME280;64321;48.796;44.740;2024-02-26T03:08:27;103980.28;;;-8.30;80.61
75701;BME280;64321;48.796;44.740;2024-02-26T03:13:30;103978.06;;;-8.23;80.08
75701;BME280;64321;48.796;44.740;2024-02-26T03:18:32;103977.19;;;-8.23;79.45
75701;BME280;64321;48.796;44.740;2024-02-26T03:23:35;103971.72;;;-8.13;79.26
75701;BME280;64321;48.796;44.740;2024-02-26T03:28:38;103970.78;;;-8.15;78.51
75701;BME280;64321;48.796;44.740;2024-02-26T03:33:41;103969.81;;;-8.17;79.23
75701;BME280;64321;48.796;44.740;2024-02-26T03:38:44;103974.06;;;-8.18;79.51
75701;BME280;64321;48.796;44.740;2024-02-26T03:43:46;103978.94;;;-8.06;80.42
75701;BME280;64321;48.796;44.740;2024-02-26T03:48:49;103985.06;;;-7.85;80.93
75701;BME280;64321;48.796;44.740;2024-02-26T03:53:52;103988.50;;;-7.84;82.33
75701;BME280;64321;48.796;44.740;2024-02-26T03:58:54;103985.44;;;-7.77;84.51
75701;BME280;64321;48.796;44.740;2024-02-26T04:03:57;103986.19;;;-7.80;85.49
75701;BME280;64321;48.796;44.740;2024-02-26T04:08:59;103984.88;;;-7.72;87.18
75701;BME280;64321;48.796;44.740;2024-02-26T04:14:03;104006.84;;;-7.77;87.57
75701;BME280;64321;48.796;44.740;2024-02-26T04:19:06;104000.84;;;-7.77;88.81
75701;BME280;64321;48.796;44.740;2024-02-26T04:24:09;104008.09;;;-7.68;87.74
75701;BME280;64321;48.796;44.740;2024-02-26T04:29:12;104010.44;;;-7.55;87.44
75701;BME280;64321;48.796;44.740;2024-02-26T04:34:14;104009.09;;;-7.47;85.89
75701;BME280;64321;48.796;44.740;2024-02-26T04:39:17;104012.13;;;-7.38;85.30
75701;BME280;64321;48.796;44.740;2024-02-26T04:44:20;104012.69;;;-7.44;85.28
75701;BME280;64321;48.796;44.740;2024-02-26T04:49:23;104009.69;;;-7.35;85.63
75701;BME280;64321;48.796;44.740;2024-02-26T04:54:26;104015.63;;;-7.36;84.08
75701;BME280;64321;48.796;44.740;2024-02-26T04:59:28;104019.97;;;-7.16;83.96
75701;BME280;64321;48.796;44.740;2024-02-26T05:04:31;104033.06;;;-6.92;81.31
75701;BME280;64321;48.796;44.740;2024-02-26T05:09:35;104022.72;;;-6.93;81.59
75701;BME280;64321;48.796;44.740;2024-02-26T05:14:37;104025.16;;;-6.77;80.50
75701;BME280;64321;48.796;44.740;2024-02-26T05:19:40;104018.88;;;-6.84;81.89
75701;BME280;64321;48.796;44.740;2024-02-26T05:24:42;104026.38;;;-6.69;79.79
75701;BME280;64321;48.796;44.740;2024-02-26T05:29:45;104024.84;;;-6.66;78.63
75701;BME280;64321;48.796;44.740;2024-02-26T05:34:47;104028.00;;;-6.52;77.51
75701;BME280;64321;48.796;44.740;2024-02-26T05:39:50;104024.03;;;-6.45;75.41
75701;BME280;64321;48.796;44.740;2024-02-26T05:44:52;104023.41;;;-6.19;74.10
75701;BME280;64321;48.796;44.740;2024-02-26T05:49:55;104028.59;;;-5.98;71.88
75701;BME280;64321;48.796;44.740;2024-02-26T05:55:01;104031.50;;;-5.89;69.97
75701;BME280;64321;48.796;44.740;2024-02-26T06:00:04;104046.38;;;-5.82;68.55
75701;BME280;64321;48.796;44.740;2024-02-26T06:05:13;104044.41;;;-5.46;67.81
75701;BME280;64321;48.796;44.740;2024-02-26T06:10:16;104036.50;;;-5.28;65.96
75701;BME280;64321;48.796;44.740;2024-02-26T06:15:19;104019.41;;;-5.26;65.04
75701;BME280;64321;48.796;44.740;2024-02-26T06:20:21;104034.09;;;-5.01;64.42
75701;BME280;64321;48.796;44.740;2024-02-26T06:25:24;104032.63;;;-4.95;63.72
75701;BME280;64321;48.796;44.740;2024-02-26T06:30:27;104040.09;;;-4.78;62.88
75701;BME280;64321;48.796;44.740;2024-02-26T06:35:31;104031.66;;;-4.74;62.28
75701;BME280;64321;48.796;44.740;2024-02-26T06:40:33;104033.66;;;-4.67;61.88
75701;BME280;64321;48.796;44.740;2024-02-26T06:45:36;104028.81;;;-4.58;61.27
75701;BME280;64321;48.796;44.740;2024-02-26T06:50:38;104034.31;;;-4.24;61.24
75701;BME280;64321;48.796;44.740;2024-02-26T06:55:42;104031.59;;;-4.03;61.28
75701;BME280;64321;48.796;44.740;2024-02-26T07:00:45;104038.19;;;-3.86;60.37
75701;BME280;64321;48.796;44.740;2024-02-26T07:05:48;104036.38;;;-3.63;59.87
75701;BME280;64321;48.796;44.740;2024-02-26T07:10:51;104034.88;;;-3.55;59.42
75701;BME280;64321;48.796;44.740;2024-02-26T07:15:54;104026.88;;;-3.35;58.85
75701;BME280;64321;48.796;44.740;2024-02-26T07:20:57;104021.75;;;-3.34;58.09
75701;BME280;64321;48.796;44.740;2024-02-26T07:25:59;104021.13;;;-3.27;58.15
75701;BME280;64321;48.796;44.740;2024-02-26T07:31:02;104019.03;;;-3.10;58.27
75701;BME280;64321;48.796;44.740;2024-02-26T07:36:05;104016.72;;;-3.01;57.59
75701;BME280;64321;48.796;44.740;2024-02-26T07:41:08;104004.41;;;-2.80;57.02
75701;BME280;64321;48.796;44.740;2024-02-26T07:46:11;104015.91;;;-2.68;56.50
75701;BME280;64321;48.796;44.740;2024-02-26T07:51:15;104003.06;;;-2.34;56.29
75701;BME280;64321;48.796;44.740;2024-02-26T07:56:17;104006.22;;;-2.44;56.49
75701;BME280;64321;48.796;44.740;2024-02-26T08:01:20;103998.59;;;-2.06;55.89
75701;BME280;64321;48.796;44.740;2024-02-26T08:06:23;103987.06;;;-2.19;55.30
75701;BME280;64321;48.796;44.740;2024-02-26T08:11:27;103976.56;;;-1.89;53.89
75701;BME280;64321;48.796;44.740;2024-02-26T08:16:30;103972.38;;;-1.84;52.97
75701;BME280;64321;48.796;44.740;2024-02-26T08:21:36;103972.03;;;-1.62;52.56
75701;BME280;64321;48.796;44.740;2024-02-26T08:26:39;103965.84;;;-1.29;51.53
75701;BME280;64321;48.796;44.740;2024-02-26T08:31:41;103963.88;;;-0.99;50.63
75701;BME280;64321;48.796;44.740;2024-02-26T08:36:44;103956.25;;;-0.91;50.37
75701;BME280;64321;48.796;44.740;2024-02-26T08:41:46;103951.28;;;-0.79;49.66
75701;BME280;64321;48.796;44.740;2024-02-26T08:46:49;103940.31;;;-0.64;49.88
75701;BME280;64321;48.796;44.740;2024-02-26T08:51:53;103936.19;;;-0.53;49.03
75701;BME280;64321;48.796;44.740;2024-02-26T08:56:55;103931.44;;;-0.29;49.28
75701;BME280;64321;48.796;44.740;2024-02-26T09:01:58;103923.69;;;-0.26;48.27
75701;BME280;64321;48.796;44.740;2024-02-26T09:07:01;103909.19;;;-0.12;48.92
75701;BME280;64321;48.796;44.740;2024-02-26T09:12:04;103914.84;;;0.17;48.42
75701;BME280;64321;48.796;44.740;2024-02-26T09:17:07;103909.47;;;0.07;47.80
75701;BME280;64321;48.796;44.740;2024-02-26T09:22:10;103909.69;;;0.22;48.08
75701;BME280;64321;48.796;44.740;2024-02-26T09:27:16;103906.31;;;0.27;46.67
75701;BME280;64321;48.796;44.740;2024-02-26T09:32:19;103901.38;;;0.47;46.15
75701;BME280;64321;48.796;44.740;2024-02-26T09:37:21;103897.97;;;0.51;45.82
75701;BME280;64321;48.796;44.740;2024-02-26T09:42:27;103894.72;;;0.67;45.78
75701;BME280;64321;48.796;44.740;2024-02-26T09:47:34;103884.19;;;0.58;45.46
75701;BME280;64321;48.796;44.740;2024-02-26T09:52:38;103874.03;;;0.80;44.91
75701;BME280;64321;48.796;44.740;2024-02-26T09:57:45;103873.16;;;0.78;43.97
75701;BME280;64321;48.796;44.740;2024-02-26T10:02:49;103865.47;;;0.87;43.53
75701;BME280;64321;48.796;44.740;2024-02-26T10:07:52;103854.38;;;1.09;43.19
75701;BME280;64321;48.796;44.740;2024-02-26T10:12:55;103828.34;;;1.08;41.75
75701;BME280;64321;48.796;44.740;2024-02-26T10:17:57;103840.00;;;1.51;41.81
75701;BME280;64321;48.796;44.740;2024-02-26T10:23:04;103822.75;;;1.65;42.79
75701;BME280;64321;48.796;44.740;2024-02-26T10:28:07;103825.44;;;1.74;42.57
75701;BME280;64321;48.796;44.740;2024-02-26T10:33:12;103821.19;;;1.90;42.71
75701;BME280;64321;48.796;44.740;2024-02-26T10:38:16;103817.84;;;2.17;43.49
75701;BME280;64321;48.796;44.740;2024-02-26T10:43:22;103807.41;;;2.14;42.41
75701;BME280;64321;48.796;44.740;2024-02-26T10:48:25;103793.56;;;2.27;41.95
75701;BME280;64321;48.796;44.740;2024-02-26T10:53:29;103791.03;;;2.53;41.18
75701;BME280;64321;48.796;44.740;2024-02-26T10:58:33;103787.63;;;2.92;43.13
75701;BME280;64321;48.796;44.740;2024-02-26T11:03:36;103788.50;;;2.82;44.68
75701;BME280;64321;48.796;44.740;2024-02-26T11:08:39;103769.31;;;2.69;46.13
75701;BME280;64321;48.796;44.740;2024-02-26T11:13:46;103774.59;;;2.98;45.68
75701;BME280;64321;48.796;44.740;2024-02-26T11:18:51;103755.41;;;2.73;45.88
75701;BME280;64321;48.796;44.740;2024-02-26T11:23:57;103761.53;;;3.01;44.79
75701;BME280;64321;48.796;44.740;2024-02-26T11:29:00;103751.97;;;3.12;45.68
75701;BME280;64321;48.796;44.740;2024-02-26T11:34:07;103750.22;;;2.93;46.45
75701;BME280;64321;48.796;44.740;2024-02-26T11:39:11;103744.13;;;2.95;46.67
75701;BME280;64321;48.796;44.740;2024-02-26T11:44:28;103742.38;;;3.23;45.56
75701;BME280;64321;48.796;44.740;2024-02-26T11:49:31;103733.72;;;3.04;46.09
75701;BME280;64321;48.796;44.740;2024-02-26T11:54:45;103746.75;;;2.82;45.54
75701;BME280;64321;48.796;44.740;2024-02-26T11:59:48;103743.25;;;2.89;46.29
75701;BME280;64321;48.796;44.740;2024-02-26T12:04:53;103737.16;;;2.73;46.51
75701;BME280;64321;48.796;44.740;2024-02-26T12:10:30;103735.41;;;2.72;45.82
75701;BME280;64321;48.796;44.740;2024-02-26T12:15:41;103720.63;;;2.94;46.87
75701;BME280;64321;48.796;44.740;2024-02-26T12:20:44;103723.25;;;2.66;45.19
75701;BME280;64321;48.796;44.740;2024-02-26T12:25:47;103727.59;;;2.67;45.93
75701;BME280;64321;48.796;44.740;2024-02-26T12:30:50;103731.91;;;2.44;45.47
75701;BME280;64321;48.796;44.740;2024-02-26T12:35:56;103719.72;;;2.38;45.36
75701;BME280;64321;48.796;44.740;2024-02-26T12:40:59;103713.63;;;2.53;45.93
75701;BME280;64321;48.796;44.740;2024-02-26T12:46:03;103724.00;;;2.20;46.37
75701;BME280;64321;48.796;44.740;2024-02-26T12:51:07;103717.09;;;2.32;46.15
75701;BME280;64321;48.796;44.740;2024-02-26T12:56:10;103716.22;;;2.32;46.35
75701;BME280;64321;48.796;44.740;2024-02-26T13:01:17;103699.56;;;1.89;48.01
75701;BME280;64321;48.796;44.740;2024-02-26T13:06:20;103706.44;;;1.68;49.08
75701;BME280;64321;48.796;44.740;2024-02-26T13:11:24;103721.22;;;1.71;49.51
75701;BME280;64321;48.796;44.740;2024-02-26T13:16:26;103714.19;;;1.62;50.21
75701;BME280;64321;48.796;44.740;2024-02-26T13:21:30;103706.41;;;1.67;50.63
75701;BME280;64321;48.796;44.740;2024-02-26T13:26:32;103713.16;;;1.30;51.09
75701;BME280;64321;48.796;44.740;2024-02-26T13:31:41;103709.28;;;0.78;51.74
75701;BME280;64321;48.796;44.740;2024-02-26T13:36:46;103721.88;;;0.37;52.73
75701;BME280;64321;48.796;44.740;2024-02-26T13:41:48;103714.25;;;0.55;52.18
75701;BME280;64321;48.796;44.740;2024-02-26T13:46:51;103720.91;;;0.27;53.64
75701;BME280;64321;48.796;44.740;2024-02-26T13:51:54;103739.81;;;0.12;54.61
75701;BME280;64321;48.796;44.740;2024-02-26T13:56:56;103746.50;;;-0.07;54.93
75701;BME280;64321;48.796;44.740;2024-02-26T14:01:59;103745.28;;;-0.33;56.12
75701;BME280;64321;48.796;44.740;2024-02-26T14:07:01;103739.75;;;-0.57;56.34
75701;BME280;64321;48.796;44.740;2024-02-26T14:12:06;103736.56;;;-0.95;57.16
75701;BME280;64321;48.796;44.740;2024-02-26T14:17:08;103736.06;;;-1.24;58.38
75701;BME280;64321;48.796;44.740;2024-02-26T14:22:11;103753.00;;;-1.45;58.99
75701;BME280;64321;48.796;44.740;2024-02-26T14:27:14;103744.19;;;-1.53;60.49
75701;BME280;64321;48.796;44.740;2024-02-26T14:32:18;103750.09;;;-2.03;62.06
75701;BME280;64321;48.796;44.740;2024-02-26T14:37:20;103748.72;;;-2.27;64.40
75701;BME280;64321;48.796;44.740;2024-02-26T14:42:22;103751.66;;;-2.49;65.53
75701;BME280;64321;48.796;44.740;2024-02-26T14:47:26;103760.44;;;-2.80;67.88
75701;BME280;64321;48.796;44.740;2024-02-26T14:52:29;103770.75;;;-2.82;68.28
75701;BME280;64321;48.796;44.740;2024-02-26T14:57:32;103767.25;;;-2.84;69.58
75701;BME280;64321;48.796;44.740;2024-02-26T15:02:35;103765.88;;;-3.05;70.53
75701;BME280;64321;48.796;44.740;2024-02-26T15:07:37;103765.88;;;-3.05;71.14
75701;BME280;64321;48.796;44.740;2024-02-26T15:12:42;103778.50;;;-3.16;72.09
75701;BME280;64321;48.796;44.740;2024-02-26T15:17:45;103774.50;;;-3.36;74.85
75701;BME280;64321;48.796;44.740;2024-02-26T15:22:48;103769.03;;;-3.48;78.32
75701;BME280;64321;48.796;44.740;2024-02-26T15:27:50;103774.28;;;-3.45;81.58
75701;BME280;64321;48.796;44.740;2024-02-26T15:32:53;103775.69;;;-3.57;84.18
75701;BME280;64321;48.796;44.740;2024-02-26T15:37:56;103781.44;;;-3.67;86.66
75701;BME280;64321;48.796;44.740;2024-02-26T15:43:00;103773.41;;;-3.76;88.05
75701;BME280;64321;48.796;44.740;2024-02-26T15:48:02;103780.81;;;-3.88;90.04
75701;BME280;64321;48.796;44.740;2024-02-26T15:53:05;103777.09;;;-3.98;92.30
75701;BME280;64321;48.796;44.740;2024-02-26T15:58:08;103781.19;;;-4.04;92.84
75701;BME280;64321;48.796;44.740;2024-02-26T16:03:13;103775.13;;;-4.06;94.63
75701;BME280;64321;48.796;44.740;2024-02-26T16:08:21;103770.78;;;-4.07;93.92
75701;BME280;64321;48.796;44.740;2024-02-26T16:13:24;103771.25;;;-4.21;94.77
75701;BME280;64321;48.796;44.740;2024-02-26T16:18:26;103770.81;;;-4.36;95.95
75701;BME280;64321;48.796;44.740;2024-02-26T16:23:29;103758.38;;;-4.47;95.86
75701;BME280;64321;48.796;44.740;2024-02-26T16:28:31;103769.81;;;-4.39;99.02
75701;BME280;64321;48.796;44.740;2024-02-26T16:33:34;103777.19;;;-4.51;100.00
75701;BME280;64321;48.796;44.740;2024-02-26T16:38:37;103759.53;;;-4.66;100.00
75701;BME280;64321;48.796;44.740;2024-02-26T16:43:40;103765.22;;;-4.76;100.00
75701;BME280;64321;48.796;44.740;2024-02-26T16:48:43;103759.56;;;-4.92;100.00
75701;BME280;64321;48.796;44.740;2024-02-26T16:53:46;103750.63;;;-5.03;100.00
75701;BME280;64321;48.796;44.740;2024-02-26T16:58:49;103761.44;;;-5.13;100.00
75701;BME280;64321;48.796;44.740;2024-02-26T17:03:52;103766.41;;;-5.17;100.00
75701;BME280;64321;48.796;44.740;2024-02-26T17:08:54;103757.94;;;-5.15;100.00
75701;BME280;64321;48.796;44.740;2024-02-26T17:13:58;103760.09;;;-5.27;100.00
75701;BME280;64321;48.796;44.740;2024-02-26T17:19:00;103764.31;;;-5.29;100.00
75701;BME280;64321;48.796;44.740;2024-02-26T17:24:03;103757.34;;;-5.32;100.00
75701;BME280;64321;48.796;44.740;2024-02-26T17:29:06;103754.06;;;-5.28;100.00
75701;BME280;64321;48.796;44.740;2024-02-26T17:34:11;103751.34;;;-5.32;100.00
75701;BME280;64321;48.796;44.740;2024-02-26T17:39:14;103752.25;;;-5.30;100.00
75701;BME280;64321;48.796;44.740;2024-02-26T17:44:20;103749.75;;;-5.29;100.00
75701;BME280;64321;48.796;44.740;2024-02-26T17:49:24;103748.16;;;-5.25;100.00
75701;BME280;64321;48.796;44.740;2024-02-26T17:54:30;103745.53;;;-5.27;100.00
75701;BME280;64321;48.796;44.740;2024-02-26T17:59:32;103741.03;;;-5.32;100.00
75701;BME280;64321;48.796;44.740;2024-02-26T18:04:35;103740.16;;;-5.33;100.00
75701;BME280;64321;48.796;44.740;2024-02-26T18:09:38;103728.88;;;-5.36;100.00
75701;BME280;64321;48.796;44.740;2024-02-26T18:14:40;103723.81;;;-5.33;100.00
75701;BME280;64321;48.796;44.740;2024-02-26T18:19:43;103736.75;;;-5.32;100.00
75701;BME280;64321;48.796;44.740;2024-02-26T18:24:46;103723.47;;;-5.44;100.00
75701;BME280;64321;48.796;44.740;2024-02-26T18:29:48;103727.81;;;-5.43;100.00
75701;BME280;64321;48.796;44.740;2024-02-26T18:34:51;103728.88;;;-5.36;100.00
75701;BME280;64321;48.796;44.740;2024-02-26T18:39:55;103732.59;;;-5.28;100.00
75701;BME280;64321;48.796;44.740;2024-02-26T18:44:58;103737.00;;;-5.49;98.38
75701;BME280;64321;48.796;44.740;2024-02-26T18:50:01;103732.84;;;-5.46;97.48
75701;BME280;64321;48.796;44.740;2024-02-26T18:55:05;103744.44;;;-5.33;96.89
75701;BME280;64321;48.796;44.740;2024-02-26T19:00:09;103734.81;;;-5.39;95.92
75701;BME280;64321;48.796;44.740;2024-02-26T19:05:12;103735.59;;;-5.41;95.46
75701;BME280;64321;48.796;44.740;2024-02-26T19:10:14;103726.75;;;-5.48;95.90
75701;BME280;64321;48.796;44.740;2024-02-26T19:15:17;103724.25;;;-5.46;93.10
75701;BME280;64321;48.796;44.740;2024-02-26T19:20:22;103724.69;;;-5.33;90.09
75701;BME280;64321;48.796;44.740;2024-02-26T19:25:25;103722.19;;;-5.31;88.23
75701;BME280;64321;48.796;44.740;2024-02-26T19:30:27;103734.75;;;-5.15;85.75
75701;BME280;64321;48.796;44.740;2024-02-26T19:35:30;103731.72;;;-5.29;84.30
75701;BME280;64321;48.796;44.740;2024-02-26T19:40:33;103731.00;;;-5.25;83.36
75701;BME280;64321;48.796;44.740;2024-02-26T19:45:36;103739.50;;;-5.27;82.81
75701;BME280;64321;48.796;44.740;2024-02-26T19:50:40;103740.63;;;-5.19;81.34
75701;BME280;64321;48.796;44.740;2024-02-26T19:55:46;103733.88;;;-5.15;79.96
75701;BME280;64321;48.796;44.740;2024-02-26T20:00:49;103733.94;;;-5.39;80.19
75701;BME280;64321;48.796;44.740;2024-02-26T20:05:52;103747.94;;;-5.31;80.12
75701;BME280;64321;48.796;44.740;2024-02-26T20:10:55;103754.13;;;-5.26;79.54
75701;BME280;64321;48.796;44.740;2024-02-26T20:15:57;103748.25;;;-5.22;78.94
75701;BME280;64321;48.796;44.740;2024-02-26T20:21:00;103756.06;;;-5.44;78.32
75701;BME280;64321;48.796;44.740;2024-02-26T20:26:02;103745.13;;;-5.39;79.91
75701;BME280;64321;48.796;44.740;2024-02-26T20:31:05;103750.03;;;-5.45;79.81
75701;BME280;64321;48.796;44.740;2024-02-26T20:36:07;103758.41;;;-5.50;79.69
75701;BME280;64321;48.796;44.740;2024-02-26T20:41:10;103749.16;;;-5.45;79.94
75701;BME280;64321;48.796;44.740;2024-02-26T20:46:13;103761.09;;;-5.47;79.75
75701;BME280;64321;48.796;44.740;2024-02-26T20:51:15;103754.91;;;-5.52;78.62
75701;BME280;64321;48.796;44.740;2024-02-26T20:56:18;103757.41;;;-5.55;79.97
75701;BME280;64321;48.796;44.740;2024-02-26T21:01:20;103766.44;;;-5.67;80.95
75701;BME280;64321;48.796;44.740;2024-02-26T21:06:23;103756.13;;;-5.67;79.23
75701;BME280;64321;48.796;44.740;2024-02-26T21:11:26;103772.06;;;-5.53;78.55
75701;BME280;64321;48.796;44.740;2024-02-26T21:16:28;103770.66;;;-5.69;78.56
75701;BME280;64321;48.796;44.740;2024-02-26T21:21:31;103759.59;;;-5.90;79.43
75701;BME280;64321;48.796;44.740;2024-02-26T21:26:35;103761.56;;;-5.83;79.85
75701;BME280;64321;48.796;44.740;2024-02-26T21:31:39;103761.84;;;-5.75;78.82
75701;BME280;64321;48.796;44.740;2024-02-26T21:36:42;103769.81;;;-5.93;79.22
75701;BME280;64321;48.796;44.740;2024-02-26T21:41:44;103763.94;;;-5.87;78.85
75701;BME280;64321;48.796;44.740;2024-02-26T21:46:47;103764.75;;;-5.90;78.16
75701;BME280;64321;48.796;44.740;2024-02-26T21:51:51;103769.69;;;-5.96;79.02
75701;BME280;64321;48.796;44.740;2024-02-26T21:56:53;103762.97;;;-5.92;77.49
75701;BME280;64321;48.796;44.740;2024-02-26T22:01:56;103774.06;;;-5.93;76.99
75701;BME280;64321;48.796;44.740;2024-02-26T22:06:59;103763.84;;;-6.14;77.86
75701;BME280;64321;48.796;44.740;2024-02-26T22:12:02;103766.50;;;-6.13;78.14
75701;BME280;64321;48.796;44.740;2024-02-26T22:17:04;103762.56;;;-6.25;78.17
75701;BME280;64321;48.796;44.740;2024-02-26T22:22:07;103771.09;;;-6.26;76.80
75701;BME280;64321;48.796;44.740;2024-02-26T22:27:09;103770.72;;;-6.58;78.75
75701;BME280;64321;48.796;44.740;2024-02-26T22:32:12;103771.09;;;-6.49;80.15
75701;BME280;64321;48.796;44.740;2024-02-26T22:37:14;103764.22;;;-6.71;80.93
75701;BME280;64321;48.796;44.740;2024-02-26T22:42:20;103767.28;;;-6.58;80.86
75701;BME280;64321;48.796;44.740;2024-02-26T22:47:22;103776.75;;;-6.57;81.23
75701;BME280;64321;48.796;44.740;2024-02-26T22:52:25;103779.84;;;-6.44;81.40
75701;BME280;64321;48.796;44.740;2024-02-26T22:57:28;103784.00;;;-6.47;80.29
75701;BME280;64321;48.796;44.740;2024-02-26T23:02:30;103785.38;;;-6.55;79.47
75701;BME280;64321;48.796;44.740;2024-02-26T23:07:33;103789.78;;;-6.53;79.21
75701;BME280;64321;48.796;44.740;2024-02-26T23:12:36;103781.94;;;-6.56;79.52
75701;BME280;64321;48.796;44.740;2024-02-26T23:17:41;103778.69;;;-6.52;77.83
75701;BME280;64321;48.796;44.740;2024-02-26T23:22:46;103796.81;;;-6.90;76.55
75701;BME280;64321;48.796;44.740;2024-02-26T23:27:49;103791.50;;;-7.35;74.89
75701;BME280;64321;48.796;44.740;2024-02-26T23:32:51;103795.84;;;-7.53;76.06
75701;BME280;64321;48.796;44.740;2024-02-26T23:37:54;103795.28;;;-7.65;74.92
75701;BME280;64321;48.796;44.740;2024-02-26T23:42:56;103790.28;;;-7.82;75.72
75701;BME280;64321;48.796;44.740;2024-02-26T23:47:59;103787.59;;;-7.85;77.44
75701;BME280;64321;48.796;44.740;2024-02-26T23:53:02;103796.22;;;-7.83;78.35
75701;BME280;64321;48.796;44.740;2024-02-26T23:58:06;103795.97;;;-7.89;80.28
